| time (UTC) | temp C | wind direction | speed KPH | gust KPH | rain 1hr cm | rain 24hr cm | rain mn cm | humidity % | barometer mb |
| 20260505070515 | 8 | 338 | 1.6 | 6.4 | 0.00 | 0.00 | 0.00 | 88 | 1013.8 |
| 20260505065516 | 8 | 338 | 3.2 | 9.7 | 0.00 | 0.00 | 0.00 | 91 | 1013.6 |
| 20260505064516 | 8 | 0.0 | 4.8 | 0.00 | 0.00 | 0.00 | 93 | 1013.9 | |
| 20260505063516 | 8 | 0.0 | 0.0 | 0.00 | 0.00 | 0.00 | 93 | 1013.2 | |
| 20260505062537 | 8 | 0.0 | 0.0 | 0.00 | 0.00 | 0.00 | 93 | 1012.9 | |
| 20260505061556 | 8 | 0.0 | 0.0 | 0.00 | 0.00 | 0.00 | 93 | 1012.9 | |
| 20260505060517 | 8 | 0.0 | 0.0 | 0.00 | 0.00 | 0.00 | 93 | 1012.6 | |
| 20260505055517 | 8 | 0.0 | 0.0 | 0.00 | 0.00 | 0.00 | 93 | 1012.3 | |
| 20260505054517 | 8 | 0.0 | 0.0 | 0.00 | 0.00 | 0.00 | 93 | 1012.2 | |
| 20260505053536 | 8 | 0.0 | 0.0 | 0.00 | 0.00 | 0.00 | 93 | 1011.5 | |
| 20260505052516 | 8 | 0.0 | 0.0 | 0.00 | 0.00 | 0.00 | 93 | 1011.5 | |
| 20260505051537 | 8 | 0.0 | 0.0 | 0.00 | 0.00 | 0.00 | 93 | 1011.4 | |
| 20260505050517 | 8 | 0.0 | 0.0 | 0.00 | 0.00 | 0.00 | 93 | 1011.4 | |
| 20260505041516 | 8 | 0.0 | 0.0 | 0.00 | 0.00 | 0.00 | 91 | 1011.5 | |
| 20260505040516 | 9 | 0.0 | 0.0 | 0.00 | 0.00 | 0.00 | 92 | 1011.4 | |
| 20260505035538 | 9 | 0.0 | 0.0 | 0.00 | 0.00 | 0.00 | 91 | 1011.3 | |
| 20260505034516 | 9 | 0.0 | 0.0 | 0.00 | 0.00 | 0.00 | 91 | 1011.1 | |
| 20260505033517 | 9 | 0.0 | 1.6 | 0.00 | 0.00 | 0.00 | 90 | 1011.0 | |
| 20260505032536 | 10 | 0.0 | 0.0 | 0.00 | 0.00 | 0.00 | 90 | 1010.8 | |
| 20260505031516 | 10 | 0.0 | 0.0 | 0.00 | 0.00 | 0.00 | 89 | 1010.6 | |
| 20260505030515 | 10 | 0.0 | 0.0 | 0.00 | 0.00 | 0.00 | 88 | 1009.6 | |
| 20260505025516 | 10 | 0.0 | 1.6 | 0.00 | 0.00 | 0.00 | 85 | 1009.3 | |
| 20260505024517 | 11 | 0.0 | 1.6 | 0.00 | 0.00 | 0.00 | 82 | 1009.5 | |
| 20260505023516 | 11 | 0.0 | 1.6 | 0.00 | 0.00 | 0.00 | 74 | 1009.3 | |
| 20260505022516 | 11 | 0.0 | 3.2 | 0.00 | 0.00 | 0.00 | 69 | 1008.9 | |
| 20260505021516 | 11 | 0.0 | 3.2 | 0.00 | 0.00 | 0.00 | 69 | 1008.8 | |
| 20260505020517 | 11 | 0.0 | 0.0 | 0.00 | 0.00 | 0.00 | 70 | 1007.8 | |
| 20260505015516 | 12 | 0.0 | 0.0 | 0.00 | 0.00 | 0.00 | 69 | 1008.2 | |
| 20260505014516 | 12 | 0.0 | 4.8 | 0.00 | 0.00 | 0.00 | 67 | 1008.0 | |
| 20260505013517 | 12 | 0.0 | 4.8 | 0.00 | 0.00 | 0.00 | 66 | 1007.0 | |
| 20260505012518 | 12 | 23 | 1.6 | 8.0 | 0.00 | 0.00 | 0.00 | 65 | 1007.4 |
| 20260505011519 | 12 | 338 | 1.6 | 6.4 | 0.00 | 0.00 | 0.00 | 65 | 1007.4 |
| 20260505010525 | 13 | 338 | 3.2 | 9.7 | 0.00 | 0.00 | 0.00 | 62 | 1007.0 |
| 20260505005530 | 13 | 338 | 1.6 | 9.7 | 0.00 | 0.00 | 0.00 | 62 | 1007.4 |
| 20260505004520 | 14 | 338 | 1.6 | 12.9 | 0.00 | 0.00 | 0.00 | 58 | 1007.2 |
| 20260505003518 | 15 | 0.0 | 4.8 | 0.00 | 0.00 | 0.00 | 56 | 1007.0 | |
| 20260505002518 | 14 | 338 | 1.6 | 4.8 | 0.00 | 0.00 | 0.00 | 60 | 1006.8 |
| 20260505001521 | 13 | 0.0 | 3.2 | 0.00 | 0.00 | 0.00 | 70 | 1006.5 | |
| 20260505000518 | 13 | 0.0 | 0.0 | 0.00 | 0.00 | 0.00 | 75 | 1006.4 | |
| 20260504235520 | 13 | 0.0 | 0.0 | 0.00 | 0.00 | 0.00 | 74 | 1006.3 | |
| 20260504234518 | 13 | 0.0 | 0.0 | 0.00 | 0.00 | 0.00 | 78 | 1006.2 | |
| 20260504233538 | 12 | 0.0 | 3.2 | 0.00 | 0.00 | 0.00 | 82 | 1006.3 | |
| 20260504232523 | 12 | 0.0 | 1.6 | 0.00 | 0.00 | 0.00 | 82 | 1006.1 | |
| 20260504231523 | 13 | 0.0 | 1.6 | 0.00 | 0.00 | 0.00 | 75 | 1006.3 | |
| 20260504230518 | 15 | 0.0 | 4.8 | 0.00 | 0.00 | 0.00 | 67 | 1007.2 | |
| 20260504225539 | 16 | 270 | 3.2 | 9.7 | 0.00 | 0.00 | 0.00 | 48 | 1007.1 |
| 20260504224523 | 16 | 0.0 | 0.0 | 0.00 | 0.00 | 0.00 | 45 | 1006.7 | |
| 20260504223517 | 16 | 0.0 | 1.6 | 0.00 | 0.00 | 0.00 | 44 | 1006.4 | |
| 20260504222519 | 16 | 0.0 | 4.8 | 0.00 | 0.00 | 0.00 | 44 | 1005.9 | |
| 20260504221518 | 16 | 0.0 | 0.0 | 0.00 | 0.00 | 0.00 | 52 | 1005.8 | |
| 20260504220517 | 16 | 0.0 | 1.6 | 0.00 | 0.00 | 0.00 | 51 | 1005.3 | |
| 20260504215517 | 16 | 0.0 | 6.4 | 0.00 | 0.00 | 0.00 | 55 | 1005.1 | |
| 20260504214517 | 15 | 0.0 | 3.2 | 0.00 | 0.00 | 0.00 | 56 | 1005.4 | |
| 20260504213525 | 14 | 338 | 1.6 | 6.4 | 0.00 | 0.00 | 0.00 | 55 | 1005.5 |
| 20260504212517 | 13 | 0 | 3.2 | 11.3 | 0.00 | 0.00 | 0.00 | 56 | 1005.8 |
| 20260504211537 | 13 | 0 | 1.6 | 9.7 | 0.00 | 0.00 | 0.00 | 60 | 1006.8 |
| 20260504210519 | 13 | 338 | 1.6 | 11.3 | 0.00 | 0.00 | 0.00 | 68 | 1006.7 |
| 20260504205517 | 13 | 0.0 | 3.2 | 0.00 | 0.00 | 0.00 | 72 | 1006.8 | |
| 20260504204537 | 15 | 0.0 | 1.6 | 0.00 | 0.00 | 0.00 | 66 | 1006.9 | |
| 20260504203517 | 18 | 338 | 4.8 | 16.1 | 0.00 | 0.00 | 0.00 | 36 | 1007.1 |
| 20260504202518 | 18 | 338 | 8.0 | 16.1 | 0.00 | 0.00 | 0.00 | 30 | 1006.4 |
| 20260504201518 | 20 | 23 | 8.0 | 20.9 | 0.00 | 0.00 | 0.00 | 26 | 1006.6 |
| 20260504200518 | 22 | 338 | 4.8 | 9.7 | 0.00 | 0.00 | 0.00 | 23 | 1007.5 |
| 20260504195517 | 22 | 0 | 1.6 | 6.4 | 0.00 | 0.00 | 0.00 | 24 | 1007.5 |
| 20260504194517 | 22 | 315 | 1.6 | 8.0 | 0.00 | 0.00 | 0.00 | 23 | 1007.4 |
| 20260504193517 | 23 | 248 | 3.2 | 12.9 | 0.00 | 0.00 | 0.00 | 22 | 1008.1 |
| 20260504192519 | 22 | 338 | 3.2 | 9.7 | 0.00 | 0.00 | 0.00 | 23 | 1008.2 |
| 20260504191517 | 22 | 248 | 3.2 | 16.1 | 0.00 | 0.00 | 0.00 | 23 | 1007.8 |
| 20260504190523 | 22 | 293 | 3.2 | 12.9 | 0.00 | 0.00 | 0.00 | 22 | 1008.2 |
| 20260504185517 | 22 | 270 | 1.6 | 11.3 | 0.00 | 0.00 | 0.00 | 24 | 1008.3 |
| 20260504184538 | 22 | 315 | 3.2 | 9.7 | 0.00 | 0.00 | 0.00 | 23 | 1008.3 |
| 20260504183518 | 22 | 270 | 3.2 | 9.7 | 0.00 | 0.00 | 0.00 | 23 | 1008.5 |
| 20260504182517 | 21 | 270 | 1.6 | 8.0 | 0.00 | 0.00 | 0.00 | 25 | 1008.6 |
| 20260504181518 | 21 | 270 | 3.2 | 11.3 | 0.00 | 0.00 | 0.00 | 25 | 1008.6 |
| 20260504180518 | 21 | 270 | 4.8 | 19.3 | 0.00 | 0.00 | 0.00 | 26 | 1009.2 |
| 20260504175518 | 20 | 293 | 1.6 | 8.0 | 0.00 | 0.00 | 0.00 | 26 | 1009.1 |
| 20260504174537 | 20 | 315 | 1.6 | 9.7 | 0.00 | 0.00 | 0.00 | 27 | 1009.4 |
| 20260504173536 | 20 | 315 | 1.6 | 9.7 | 0.00 | 0.00 | 0.00 | 28 | 1009.6 |
| 20260504172517 | 19 | 248 | 1.6 | 11.3 | 0.00 | 0.00 | 0.00 | 28 | 1009.6 |
| 20260504171517 | 19 | 0.0 | 3.2 | 0.00 | 0.00 | 0.00 | 29 | 1009.7 | |
| 20260504170516 | 18 | 270 | 1.6 | 6.4 | 0.00 | 0.00 | 0.00 | 29 | 1009.4 |
| 20260504150517 | 16 | 0.0 | 3.2 | 0.00 | 0.00 | 0.00 | 32 | 1009.8 | |
| 20260504140517 | 11 | 0.0 | 0.0 | 0.00 | 0.00 | 0.00 | 45 | 1009.2 | |
| 20260504130516 | 7 | 0.0 | 0.0 | 0.00 | 0.00 | 0.00 | 58 | 1008.3 | |
| 20260504110536 | 6 | 0.0 | 0.0 | 0.00 | 0.00 | 0.00 | 57 | 1008.4 | |
| 20260504100516 | 6 | 0.0 | 0.0 | 0.00 | 0.00 | 0.00 | 58 | 1008.6 | |
| 20260504081516 | 8 | 0.0 | 0.0 | 0.00 | 0.00 | 0.00 | 50 | 1010.8 | |
| 20260504080515 | 9 | 0.0 | 0.0 | 0.00 | 0.00 | 0.00 | 48 | 1010.9 |